sensor_id;sensor_type;location;lat;lon;timestamp;temperature;humidity
38784;DHT22;24531;45.502;12.238;2022-07-10T00:00:31;26.80;54.80
38784;DHT22;24531;45.502;12.238;2022-07-10T00:02:59;26.70;54.90
38784;DHT22;24531;45.502;12.238;2022-07-10T00:05:26;26.70;55.10
38784;DHT22;24531;45.502;12.238;2022-07-10T00:07:51;26.60;55.00
38784;DHT22;24531;45.502;12.238;2022-07-10T00:10:18;26.70;55.30
38784;DHT22;24531;45.502;12.238;2022-07-10T00:12:45;26.70;55.00
38784;DHT22;24531;45.502;12.238;2022-07-10T00:15:11;26.70;54.90
38784;DHT22;24531;45.502;12.238;2022-07-10T00:17:37;26.60;54.90
38784;DHT22;24531;45.502;12.238;2022-07-10T00:20:05;26.60;55.00
38784;DHT22;24531;45.502;12.238;2022-07-10T00:22:35;26.50;55.10
38784;DHT22;24531;45.502;12.238;2022-07-10T00:25:02;26.50;55.20
38784;DHT22;24531;45.502;12.238;2022-07-10T00:27:28;28.90;56.60
38784;DHT22;24531;45.502;12.238;2022-07-10T00:29:54;26.40;55.20
38784;DHT22;24531;45.502;12.238;2022-07-10T00:32:20;26.30;55.90
38784;DHT22;24531;45.502;12.238;2022-07-10T00:34:45;26.40;55.40
38784;DHT22;24531;45.502;12.238;2022-07-10T00:37:11;26.40;55.20
38784;DHT22;24531;45.502;12.238;2022-07-10T00:39:37;26.40;55.20
38784;DHT22;24531;45.502;12.238;2022-07-10T00:42:10;26.40;55.10
38784;DHT22;24531;45.502;12.238;2022-07-10T00:44:37;26.40;55.00
38784;DHT22;24531;45.502;12.238;2022-07-10T00:47:07;26.40;54.90
38784;DHT22;24531;45.502;12.238;2022-07-10T00:49:34;26.40;54.80
38784;DHT22;24531;45.502;12.238;2022-07-10T00:52:02;26.40;54.70
38784;DHT22;24531;45.502;12.238;2022-07-10T00:54:29;26.30;54.60
38784;DHT22;24531;45.502;12.238;2022-07-10T00:56:57;26.30;54.70
38784;DHT22;24531;45.502;12.238;2022-07-10T00:59:24;26.30;54.80
38784;DHT22;24531;45.502;12.238;2022-07-10T01:01:50;26.30;54.70
38784;DHT22;24531;45.502;12.238;2022-07-10T01:04:17;26.30;54.70
38784;DHT22;24531;45.502;12.238;2022-07-10T01:06:43;26.30;54.80
38784;DHT22;24531;45.502;12.238;2022-07-10T01:09:08;26.30;54.70
38784;DHT22;24531;45.502;12.238;2022-07-10T01:11:35;26.30;54.50
38784;DHT22;24531;45.502;12.238;2022-07-10T01:14:02;26.30;54.50
38784;DHT22;24531;45.502;12.238;2022-07-10T01:16:28;26.30;54.60
38784;DHT22;24531;45.502;12.238;2022-07-10T01:18:55;26.20;54.60
38784;DHT22;24531;45.502;12.238;2022-07-10T01:21:25;26.20;54.50
38784;DHT22;24531;45.502;12.238;2022-07-10T01:23:51;26.20;54.50
38784;DHT22;24531;45.502;12.238;2022-07-10T01:26:18;26.10;54.50
38784;DHT22;24531;45.502;12.238;2022-07-10T01:28:43;26.10;54.50
38784;DHT22;24531;45.502;12.238;2022-07-10T01:31:10;26.10;54.60
38784;DHT22;24531;45.502;12.238;2022-07-10T01:33:36;26.20;54.50
38784;DHT22;24531;45.502;12.238;2022-07-10T01:36:01;26.20;54.50
38784;DHT22;24531;45.502;12.238;2022-07-10T01:38:27;26.20;54.50
38784;DHT22;24531;45.502;12.238;2022-07-10T01:40:52;26.30;54.50
38784;DHT22;24531;45.502;12.238;2022-07-10T01:43:20;26.20;54.40
38784;DHT22;24531;45.502;12.238;2022-07-10T01:45:45;26.20;54.50
38784;DHT22;24531;45.502;12.238;2022-07-10T01:48:11;26.20;54.50
38784;DHT22;24531;45.502;12.238;2022-07-10T01:50:37;26.20;54.90
38784;DHT22;24531;45.502;12.238;2022-07-10T01:53:04;26.30;54.80
38784;DHT22;24531;45.502;12.238;2022-07-10T01:55:31;26.30;54.60
38784;DHT22;24531;45.502;12.238;2022-07-10T01:57:57;26.20;54.60
38784;DHT22;24531;45.502;12.238;2022-07-10T02:00:22;26.10;54.80
38784;DHT22;24531;45.502;12.238;2022-07-10T02:02:49;26.10;55.10
38784;DHT22;24531;45.502;12.238;2022-07-10T02:05:34;26.20;55.10
38784;DHT22;24531;45.502;12.238;2022-07-10T02:08:00;26.20;55.00
38784;DHT22;24531;45.502;12.238;2022-07-10T02:10:29;26.20;55.20
38784;DHT22;24531;45.502;12.238;2022-07-10T02:12:55;26.20;55.20
38784;DHT22;24531;45.502;12.238;2022-07-10T02:15:21;26.20;55.40
38784;DHT22;24531;45.502;12.238;2022-07-10T02:17:47;26.20;55.00
38784;DHT22;24531;45.502;12.238;2022-07-10T02:20:13;26.20;55.10
38784;DHT22;24531;45.502;12.238;2022-07-10T02:22:38;26.20;55.00
38784;DHT22;24531;45.502;12.238;2022-07-10T02:25:04;26.10;55.30
38784;DHT22;24531;45.502;12.238;2022-07-10T02:27:30;26.20;55.70
38784;DHT22;24531;45.502;12.238;2022-07-10T02:29:56;26.20;55.60
38784;DHT22;24531;45.502;12.238;2022-07-10T02:32:21;26.20;55.70
38784;DHT22;24531;45.502;12.238;2022-07-10T02:34:47;26.20;55.50
38784;DHT22;24531;45.502;12.238;2022-07-10T02:37:13;26.10;55.50
38784;DHT22;24531;45.502;12.238;2022-07-10T02:39:38;26.10;55.30
38784;DHT22;24531;45.502;12.238;2022-07-10T02:42:04;26.10;55.40
38784;DHT22;24531;45.502;12.238;2022-07-10T02:44:30;26.10;55.70
38784;DHT22;24531;45.502;12.238;2022-07-10T02:46:55;26.10;56.00
38784;DHT22;24531;45.502;12.238;2022-07-10T02:49:21;26.10;55.60
38784;DHT22;24531;45.502;12.238;2022-07-10T02:51:46;26.10;55.50
38784;DHT22;24531;45.502;12.238;2022-07-10T02:54:12;26.00;55.50
38784;DHT22;24531;45.502;12.238;2022-07-10T02:56:38;25.90;55.60
38784;DHT22;24531;45.502;12.238;2022-07-10T02:59:05;25.90;56.60
38784;DHT22;24531;45.502;12.238;2022-07-10T03:01:31;25.90;55.80
38784;DHT22;24531;45.502;12.238;2022-07-10T03:03:57;25.90;55.90
38784;DHT22;24531;45.502;12.238;2022-07-10T03:06:23;25.90;55.70
38784;DHT22;24531;45.502;12.238;2022-07-10T03:08:49;25.90;55.60
38784;DHT22;24531;45.502;12.238;2022-07-10T03:11:14;25.80;55.60
38784;DHT22;24531;45.502;12.238;2022-07-10T03:13:40;25.80;55.50
38784;DHT22;24531;45.502;12.238;2022-07-10T03:16:06;25.90;55.70
38784;DHT22;24531;45.502;12.238;2022-07-10T03:18:32;25.90;55.80
38784;DHT22;24531;45.502;12.238;2022-07-10T03:20:57;25.90;56.10
38784;DHT22;24531;45.502;12.238;2022-07-10T03:23:23;25.90;55.90
38784;DHT22;24531;45.502;12.238;2022-07-10T03:25:49;25.90;55.90
38784;DHT22;24531;45.502;12.238;2022-07-10T03:28:14;25.90;55.80
38784;DHT22;24531;45.502;12.238;2022-07-10T03:30:40;25.90;56.00
38784;DHT22;24531;45.502;12.238;2022-07-10T03:33:05;25.90;56.20
38784;DHT22;24531;45.502;12.238;2022-07-10T03:35:31;25.90;55.90
38784;DHT22;24531;45.502;12.238;2022-07-10T03:37:57;25.90;56.10
38784;DHT22;24531;45.502;12.238;2022-07-10T03:40:23;25.90;55.80
38784;DHT22;24531;45.502;12.238;2022-07-10T03:42:49;25.80;55.60
38784;DHT22;24531;45.502;12.238;2022-07-10T03:45:15;25.80;55.80
38784;DHT22;24531;45.502;12.238;2022-07-10T03:47:40;25.80;55.80
38784;DHT22;24531;45.502;12.238;2022-07-10T03:50:06;25.80;55.80
38784;DHT22;24531;45.502;12.238;2022-07-10T03:52:32;25.80;55.90
38784;DHT22;24531;45.502;12.238;2022-07-10T03:54:57;25.80;56.00
38784;DHT22;24531;45.502;12.238;2022-07-10T03:57:23;25.80;56.00
38784;DHT22;24531;45.502;12.238;2022-07-10T04:00:08;25.70;56.40
38784;DHT22;24531;45.502;12.238;2022-07-10T04:02:34;25.70;56.50
38784;DHT22;24531;45.502;12.238;2022-07-10T04:04:59;25.70;56.60
38784;DHT22;24531;45.502;12.238;2022-07-10T04:07:25;25.70;57.00
38784;DHT22;24531;45.502;12.238;2022-07-10T04:09:50;25.80;57.20
38784;DHT22;24531;45.502;12.238;2022-07-10T04:12:16;25.80;57.40
38784;DHT22;24531;45.502;12.238;2022-07-10T04:14:42;25.80;57.20
38784;DHT22;24531;45.502;12.238;2022-07-10T04:17:07;25.80;56.80
38784;DHT22;24531;45.502;12.238;2022-07-10T04:19:34;25.80;56.90
38784;DHT22;24531;45.502;12.238;2022-07-10T04:21:59;25.80;56.90
38784;DHT22;24531;45.502;12.238;2022-07-10T04:24:25;25.80;57.20
38784;DHT22;24531;45.502;12.238;2022-07-10T04:26:51;25.80;57.10
38784;DHT22;24531;45.502;12.238;2022-07-10T04:29:17;25.90;57.10
38784;DHT22;24531;45.502;12.238;2022-07-10T04:31:42;25.90;57.40
38784;DHT22;24531;45.502;12.238;2022-07-10T04:34:08;25.90;57.40
38784;DHT22;24531;45.502;12.238;2022-07-10T04:36:33;25.90;57.00
38784;DHT22;24531;45.502;12.238;2022-07-10T04:38:59;25.90;57.00
38784;DHT22;24531;45.502;12.238;2022-07-10T04:41:25;26.00;57.00
38784;DHT22;24531;45.502;12.238;2022-07-10T04:43:50;26.00;56.90
38784;DHT22;24531;45.502;12.238;2022-07-10T04:46:16;26.00;57.20
38784;DHT22;24531;45.502;12.238;2022-07-10T04:48:42;26.00;57.10
38784;DHT22;24531;45.502;12.238;2022-07-10T04:51:07;26.00;57.50
38784;DHT22;24531;45.502;12.238;2022-07-10T04:53:34;26.00;57.40
38784;DHT22;24531;45.502;12.238;2022-07-10T04:55:59;26.00;57.50
38784;DHT22;24531;45.502;12.238;2022-07-10T04:58:25;26.10;57.30
38784;DHT22;24531;45.502;12.238;2022-07-10T05:00:51;26.10;57.20
38784;DHT22;24531;45.502;12.238;2022-07-10T05:03:16;26.10;57.20
38784;DHT22;24531;45.502;12.238;2022-07-10T05:05:42;26.20;57.20
38784;DHT22;24531;45.502;12.238;2022-07-10T05:08:09;26.20;57.10
38784;DHT22;24531;45.502;12.238;2022-07-10T05:10:35;26.20;57.10
38784;DHT22;24531;45.502;12.238;2022-07-10T05:13:00;26.20;57.70
38784;DHT22;24531;45.502;12.238;2022-07-10T05:15:26;26.20;58.40
38784;DHT22;24531;45.502;12.238;2022-07-10T05:17:52;26.30;58.70
38784;DHT22;24531;45.502;12.238;2022-07-10T05:20:17;26.30;58.30
38784;DHT22;24531;45.502;12.238;2022-07-10T05:22:43;26.40;58.60
38784;DHT22;24531;45.502;12.238;2022-07-10T05:25:08;26.40;58.30
38784;DHT22;24531;45.502;12.238;2022-07-10T05:27:34;26.40;58.10
38784;DHT22;24531;45.502;12.238;2022-07-10T05:30:00;26.50;58.80
38784;DHT22;24531;45.502;12.238;2022-07-10T05:32:25;26.50;58.50
38784;DHT22;24531;45.502;12.238;2022-07-10T05:34:51;26.50;58.70
38784;DHT22;24531;45.502;12.238;2022-07-10T05:37:17;26.60;58.00
38784;DHT22;24531;45.502;12.238;2022-07-10T05:39:43;26.60;57.70
38784;DHT22;24531;45.502;12.238;2022-07-10T05:42:09;26.60;57.00
38784;DHT22;24531;45.502;12.238;2022-07-10T05:44:34;26.60;56.80
38784;DHT22;24531;45.502;12.238;2022-07-10T05:47:00;26.60;57.10
38784;DHT22;24531;45.502;12.238;2022-07-10T05:49:25;26.60;57.00
38784;DHT22;24531;45.502;12.238;2022-07-10T05:51:51;26.70;57.50
38784;DHT22;24531;45.502;12.238;2022-07-10T05:54:17;26.80;56.70
38784;DHT22;24531;45.502;12.238;2022-07-10T05:56:43;26.80;56.10
38784;DHT22;24531;45.502;12.238;2022-07-10T05:59:10;26.90;56.50
38784;DHT22;24531;45.502;12.238;2022-07-10T06:01:38;27.00;56.10
38784;DHT22;24531;45.502;12.238;2022-07-10T06:04:04;27.00;56.40
38784;DHT22;24531;45.502;12.238;2022-07-10T06:06:30;27.00;55.50
38784;DHT22;24531;45.502;12.238;2022-07-10T06:08:55;27.00;55.80
38784;DHT22;24531;45.502;12.238;2022-07-10T06:11:21;27.10;56.30
38784;DHT22;24531;45.502;12.238;2022-07-10T06:13:46;27.10;55.60
38784;DHT22;24531;45.502;12.238;2022-07-10T06:16:12;27.20;55.10
38784;DHT22;24531;45.502;12.238;2022-07-10T06:18:38;27.20;55.40
38784;DHT22;24531;45.502;12.238;2022-07-10T06:21:03;27.30;54.80
38784;DHT22;24531;45.502;12.238;2022-07-10T06:23:29;27.40;54.70
38784;DHT22;24531;45.502;12.238;2022-07-10T06:25:55;27.50;54.30
38784;DHT22;24531;45.502;12.238;2022-07-10T06:28:20;27.60;54.10
38784;DHT22;24531;45.502;12.238;2022-07-10T06:30:47;27.70;53.40
38784;DHT22;24531;45.502;12.238;2022-07-10T06:33:12;27.80;53.80
38784;DHT22;24531;45.502;12.238;2022-07-10T06:35:38;27.90;53.30
38784;DHT22;24531;45.502;12.238;2022-07-10T06:38:04;27.90;52.90
38784;DHT22;24531;45.502;12.238;2022-07-10T06:40:29;28.00;53.00
38784;DHT22;24531;45.502;12.238;2022-07-10T06:43:00;28.20;52.80
38784;DHT22;24531;45.502;12.238;2022-07-10T06:45:26;28.40;52.80
38784;DHT22;24531;45.502;12.238;2022-07-10T06:47:52;28.60;52.40
38784;DHT22;24531;45.502;12.238;2022-07-10T06:50:30;28.80;52.30
38784;DHT22;24531;45.502;12.238;2022-07-10T06:52:57;29.10;51.40
38784;DHT22;24531;45.502;12.238;2022-07-10T06:55:23;29.10;50.80
38784;DHT22;24531;45.502;12.238;2022-07-10T06:57:51;29.30;50.30
38784;DHT22;24531;45.502;12.238;2022-07-10T07:00:17;29.50;49.90
38784;DHT22;24531;45.502;12.238;2022-07-10T07:02:42;29.70;49.90
38784;DHT22;24531;45.502;12.238;2022-07-10T07:05:08;29.80;49.80
38784;DHT22;24531;45.502;12.238;2022-07-10T07:07:35;30.00;50.10
38784;DHT22;24531;45.502;12.238;2022-07-10T07:10:01;30.10;49.90
38784;DHT22;24531;45.502;12.238;2022-07-10T07:12:28;30.30;50.30
38784;DHT22;24531;45.502;12.238;2022-07-10T07:14:53;30.50;49.10
38784;DHT22;24531;45.502;12.238;2022-07-10T07:17:19;30.60;48.20
38784;DHT22;24531;45.502;12.238;2022-07-10T07:19:49;30.70;47.90
38784;DHT22;24531;45.502;12.238;2022-07-10T07:22:33;30.80;47.50
38784;DHT22;24531;45.502;12.238;2022-07-10T07:25:18;30.80;47.70
38784;DHT22;24531;45.502;12.238;2022-07-10T07:27:44;30.90;47.80
38784;DHT22;24531;45.502;12.238;2022-07-10T07:30:12;30.80;47.50
38784;DHT22;24531;45.502;12.238;2022-07-10T07:32:40;31.10;48.00
38784;DHT22;24531;45.502;12.238;2022-07-10T07:35:06;31.20;48.40
38784;DHT22;24531;45.502;12.238;2022-07-10T07:37:37;31.30;47.60
38784;DHT22;24531;45.502;12.238;2022-07-10T07:40:04;31.20;46.80
38784;DHT22;24531;45.502;12.238;2022-07-10T07:42:30;31.20;46.70
38784;DHT22;24531;45.502;12.238;2022-07-10T07:44:56;31.30;46.20
38784;DHT22;24531;45.502;12.238;2022-07-10T07:47:21;31.40;45.70
38784;DHT22;24531;45.502;12.238;2022-07-10T07:49:47;31.50;46.60
38784;DHT22;24531;45.502;12.238;2022-07-10T07:52:13;31.90;45.90
38784;DHT22;24531;45.502;12.238;2022-07-10T07:54:40;32.20;45.40
38784;DHT22;24531;45.502;12.238;2022-07-10T07:57:05;32.60;45.00
38784;DHT22;24531;45.502;12.238;2022-07-10T07:59:31;33.00;45.60
38784;DHT22;24531;45.502;12.238;2022-07-10T08:01:57;33.40;44.10
38784;DHT22;24531;45.502;12.238;2022-07-10T08:04:25;33.60;42.70
38784;DHT22;24531;45.502;12.238;2022-07-10T08:06:51;33.60;40.20
38784;DHT22;24531;45.502;12.238;2022-07-10T08:09:20;33.20;39.20
38784;DHT22;24531;45.502;12.238;2022-07-10T08:11:49;32.90;40.80
38784;DHT22;24531;45.502;12.238;2022-07-10T08:14:14;33.20;40.70
38784;DHT22;24531;45.502;12.238;2022-07-10T08:16:40;33.40;41.90
38784;DHT22;24531;45.502;12.238;2022-07-10T08:19:06;33.60;39.30
38784;DHT22;24531;45.502;12.238;2022-07-10T08:21:35;33.60;39.30
38784;DHT22;24531;45.502;12.238;2022-07-10T08:24:00;33.20;39.20
38784;DHT22;24531;45.502;12.238;2022-07-10T08:26:26;33.50;40.60
38784;DHT22;24531;45.502;12.238;2022-07-10T08:28:52;33.90;39.50
38784;DHT22;24531;45.502;12.238;2022-07-10T08:31:17;34.10;40.00
38784;DHT22;24531;45.502;12.238;2022-07-10T08:33:43;34.20;38.10
38784;DHT22;24531;45.502;12.238;2022-07-10T08:36:09;34.30;38.00
38784;DHT22;24531;45.502;12.238;2022-07-10T08:38:34;34.30;38.40
38784;DHT22;24531;45.502;12.238;2022-07-10T08:41:00;34.40;37.80
38784;DHT22;24531;45.502;12.238;2022-07-10T08:43:28;34.40;38.00
38784;DHT22;24531;45.502;12.238;2022-07-10T08:45:54;34.50;37.70
38784;DHT22;24531;45.502;12.238;2022-07-10T08:48:23;34.40;37.20
38784;DHT22;24531;45.502;12.238;2022-07-10T08:50:52;34.60;37.40
38784;DHT22;24531;45.502;12.238;2022-07-10T08:53:30;34.80;37.00
38784;DHT22;24531;45.502;12.238;2022-07-10T08:55:57;35.10;36.20
38784;DHT22;24531;45.502;12.238;2022-07-10T08:58:23;35.60;36.30
38784;DHT22;24531;45.502;12.238;2022-07-10T09:00:49;36.30;37.10
38784;DHT22;24531;45.502;12.238;2022-07-10T09:03:15;37.30;35.90
38784;DHT22;24531;45.502;12.238;2022-07-10T09:05:41;38.00;34.20
38784;DHT22;24531;45.502;12.238;2022-07-10T09:08:26;38.40;33.60
38784;DHT22;24531;45.502;12.238;2022-07-10T09:11:17;38.60;33.10
38784;DHT22;24531;45.502;12.238;2022-07-10T09:13:53;39.00;32.70
38784;DHT22;24531;45.502;12.238;2022-07-10T09:16:23;39.20;32.40
38784;DHT22;24531;45.502;12.238;2022-07-10T09:18:49;39.40;32.00
38784;DHT22;24531;45.502;12.238;2022-07-10T09:21:15;40.00;32.50
38784;DHT22;24531;45.502;12.238;2022-07-10T09:23:41;40.00;31.20
38784;DHT22;24531;45.502;12.238;2022-07-10T09:26:07;40.40;30.80
38784;DHT22;24531;45.502;12.238;2022-07-10T09:28:33;40.40;31.40
38784;DHT22;24531;45.502;12.238;2022-07-10T09:30:58;40.70;30.70
38784;DHT22;24531;45.502;12.238;2022-07-10T09:33:28;41.40;30.00
38784;DHT22;24531;45.502;12.238;2022-07-10T09:43:50;42.00;30.00
38784;DHT22;24531;45.502;12.238;2022-07-10T09:46:18;42.00;30.70
38784;DHT22;24531;45.502;12.238;2022-07-10T09:48:44;41.30;29.90
38784;DHT22;24531;45.502;12.238;2022-07-10T09:51:11;41.20;29.80
38784;DHT22;24531;45.502;12.238;2022-07-10T09:53:44;41.00;29.60
38784;DHT22;24531;45.502;12.238;2022-07-10T09:56:13;40.70;30.00
38784;DHT22;24531;45.502;12.238;2022-07-10T09:58:39;41.10;30.50
38784;DHT22;24531;45.502;12.238;2022-07-10T10:01:06;41.30;29.70
38784;DHT22;24531;45.502;12.238;2022-07-10T10:03:36;41.20;29.70
38784;DHT22;24531;45.502;12.238;2022-07-10T10:06:16;41.10;30.00
38784;DHT22;24531;45.502;12.238;2022-07-10T10:11:44;39.30;31.30
38784;DHT22;24531;45.502;12.238;2022-07-10T10:14:11;38.60;31.70
38784;DHT22;24531;45.502;12.238;2022-07-10T10:16:39;37.30;33.00
38784;DHT22;24531;45.502;12.238;2022-07-10T10:19:10;36.60;33.50
38784;DHT22;24531;45.502;12.238;2022-07-10T10:21:56;36.10;33.80
38784;DHT22;24531;45.502;12.238;2022-07-10T10:24:23;36.00;34.50
38784;DHT22;24531;45.502;12.238;2022-07-10T10:26:50;35.90;34.90
38784;DHT22;24531;45.502;12.238;2022-07-10T10:29:16;35.80;35.30
38784;DHT22;24531;45.502;12.238;2022-07-10T10:31:45;35.50;34.80
38784;DHT22;24531;45.502;12.238;2022-07-10T10:34:11;35.70;36.20
38784;DHT22;24531;45.502;12.238;2022-07-10T10:39:19;35.20;35.90
38784;DHT22;24531;45.502;12.238;2022-07-10T10:41:54;35.30;35.40
38784;DHT22;24531;45.502;12.238;2022-07-10T10:44:27;35.50;35.10
38784;DHT22;24531;45.502;12.238;2022-07-10T10:49:27;34.70;36.10
38784;DHT22;24531;45.502;12.238;2022-07-10T10:52:12;34.70;36.30
38784;DHT22;24531;45.502;12.238;2022-07-10T10:59:57;35.00;36.10
38784;DHT22;24531;45.502;12.238;2022-07-10T11:02:27;35.10;36.10
38784;DHT22;24531;45.502;12.238;2022-07-10T11:07:56;34.60;36.60
38784;DHT22;24531;45.502;12.238;2022-07-10T11:13:09;34.60;37.00
38784;DHT22;24531;45.502;12.238;2022-07-10T11:15:38;34.80;37.30
38784;DHT22;24531;45.502;12.238;2022-07-10T11:20:35;34.60;36.30
38784;DHT22;24531;45.502;12.238;2022-07-10T11:25:55;34.80;37.00
38784;DHT22;24531;45.502;12.238;2022-07-10T11:31:06;34.80;36.70
38784;DHT22;24531;45.502;12.238;2022-07-10T11:33:39;34.90;37.80
38784;DHT22;24531;45.502;12.238;2022-07-10T11:36:13;35.00;39.00
38784;DHT22;24531;45.502;12.238;2022-07-10T11:38:40;35.20;39.30
38784;DHT22;24531;45.502;12.238;2022-07-10T11:41:20;35.20;39.70
38784;DHT22;24531;45.502;12.238;2022-07-10T11:43:50;35.50;38.40
38784;DHT22;24531;45.502;12.238;2022-07-10T11:46:16;35.60;39.90
38784;DHT22;24531;45.502;12.238;2022-07-10T11:48:42;35.50;41.90
38784;DHT22;24531;45.502;12.238;2022-07-10T11:51:34;35.60;43.40
38784;DHT22;24531;45.502;12.238;2022-07-10T11:56:34;35.20;43.80
38784;DHT22;24531;45.502;12.238;2022-07-10T11:59:11;35.00;44.70
38784;DHT22;24531;45.502;12.238;2022-07-10T12:01:44;34.90;45.10
38784;DHT22;24531;45.502;12.238;2022-07-10T12:04:11;34.80;44.90
38784;DHT22;24531;45.502;12.238;2022-07-10T12:06:39;34.70;45.30
38784;DHT22;24531;45.502;12.238;2022-07-10T12:11:39;34.60;46.10
38784;DHT22;24531;45.502;12.238;2022-07-10T12:14:19;34.40;45.80
38784;DHT22;24531;45.502;12.238;2022-07-10T12:16:47;34.40;46.00
38784;DHT22;24531;45.502;12.238;2022-07-10T12:19:21;34.60;45.60
38784;DHT22;24531;45.502;12.238;2022-07-10T12:21:48;34.70;45.10
38784;DHT22;24531;45.502;12.238;2022-07-10T12:24:16;34.60;45.30
38784;DHT22;24531;45.502;12.238;2022-07-10T12:26:44;34.20;45.40
38784;DHT22;24531;45.502;12.238;2022-07-10T12:29:26;34.00;45.60
38784;DHT22;24531;45.502;12.238;2022-07-10T12:31:57;33.80;45.60
38784;DHT22;24531;45.502;12.238;2022-07-10T12:34:41;33.90;45.70
38784;DHT22;24531;45.502;12.238;2022-07-10T12:37:13;34.20;44.90
38784;DHT22;24531;45.502;12.238;2022-07-10T12:39:50;34.20;44.70
38784;DHT22;24531;45.502;12.238;2022-07-10T12:42:29;34.30;45.60
38784;DHT22;24531;45.502;12.238;2022-07-10T12:45:09;34.50;45.80
38784;DHT22;24531;45.502;12.238;2022-07-10T12:47:48;34.70;45.80
38784;DHT22;24531;45.502;12.238;2022-07-10T12:50:15;34.70;45.60
38784;DHT22;24531;45.502;12.238;2022-07-10T12:52:45;34.50;45.30
38784;DHT22;24531;45.502;12.238;2022-07-10T12:57:57;34.10;46.40
38784;DHT22;24531;45.502;12.238;2022-07-10T13:00:31;34.20;45.70
38784;DHT22;24531;45.502;12.238;2022-07-10T13:05:27;34.20;46.00
38784;DHT22;24531;45.502;12.238;2022-07-10T13:08:14;34.20;46.20
38784;DHT22;24531;45.502;12.238;2022-07-10T13:10:52;34.00;47.00
38784;DHT22;24531;45.502;12.238;2022-07-10T13:13:18;33.70;46.80
38784;DHT22;24531;45.502;12.238;2022-07-10T13:15:44;33.60;47.10
38784;DHT22;24531;45.502;12.238;2022-07-10T13:18:16;33.70;47.10
38784;DHT22;24531;45.502;12.238;2022-07-10T13:20:46;33.70;47.90
38784;DHT22;24531;45.502;12.238;2022-07-10T13:23:11;33.70;48.10
38784;DHT22;24531;45.502;12.238;2022-07-10T13:25:38;33.60;48.40
38784;DHT22;24531;45.502;12.238;2022-07-10T13:28:08;33.60;48.50
38784;DHT22;24531;45.502;12.238;2022-07-10T13:30:35;33.80;48.60
38784;DHT22;24531;45.502;12.238;2022-07-10T13:33:01;33.80;48.60
38784;DHT22;24531;45.502;12.238;2022-07-10T13:35:28;33.80;47.80
38784;DHT22;24531;45.502;12.238;2022-07-10T13:37:55;33.70;47.80
38784;DHT22;24531;45.502;12.238;2022-07-10T13:40:21;33.60;47.80
38784;DHT22;24531;45.502;12.238;2022-07-10T13:42:47;33.60;47.80
38784;DHT22;24531;45.502;12.238;2022-07-10T13:45:12;33.50;48.00
38784;DHT22;24531;45.502;12.238;2022-07-10T13:47:38;33.50;48.20
38784;DHT22;24531;45.502;12.238;2022-07-10T13:50:04;33.50;48.20
38784;DHT22;24531;45.502;12.238;2022-07-10T13:52:29;33.50;48.20
38784;DHT22;24531;45.502;12.238;2022-07-10T13:54:55;33.30;48.30
38784;DHT22;24531;45.502;12.238;2022-07-10T13:57:22;33.10;48.10
38784;DHT22;24531;45.502;12.238;2022-07-10T13:59:48;32.90;48.90
38784;DHT22;24531;45.502;12.238;2022-07-10T14:02:14;32.80;49.40
38784;DHT22;24531;45.502;12.238;2022-07-10T14:04:39;32.80;49.60
38784;DHT22;24531;45.502;12.238;2022-07-10T14:07:05;32.60;49.70
38784;DHT22;24531;45.502;12.238;2022-07-10T14:09:30;32.50;49.90
38784;DHT22;24531;45.502;12.238;2022-07-10T14:11:56;32.40;50.50
38784;DHT22;24531;45.502;12.238;2022-07-10T14:14:22;32.30;51.60
38784;DHT22;24531;45.502;12.238;2022-07-10T14:16:48;32.60;51.80
38784;DHT22;24531;45.502;12.238;2022-07-10T14:19:15;32.90;50.30
38784;DHT22;24531;45.502;12.238;2022-07-10T14:21:41;32.90;49.50
38784;DHT22;24531;45.502;12.238;2022-07-10T14:24:07;32.90;49.40
38784;DHT22;24531;45.502;12.238;2022-07-10T14:26:32;32.90;49.20
38784;DHT22;24531;45.502;12.238;2022-07-10T14:29:01;32.90;48.40
38784;DHT22;24531;45.502;12.238;2022-07-10T14:31:27;33.00;48.50
38784;DHT22;24531;45.502;12.238;2022-07-10T14:33:53;33.00;48.60
38784;DHT22;24531;45.502;12.238;2022-07-10T14:36:19;33.00;48.30
38784;DHT22;24531;45.502;12.238;2022-07-10T14:38:44;33.00;47.70
38784;DHT22;24531;45.502;12.238;2022-07-10T14:41:10;32.90;46.70
38784;DHT22;24531;45.502;12.238;2022-07-10T14:43:36;32.80;46.80
38784;DHT22;24531;45.502;12.238;2022-07-10T14:46:02;32.70;46.60
38784;DHT22;24531;45.502;12.238;2022-07-10T14:48:30;32.50;46.90
38784;DHT22;24531;45.502;12.238;2022-07-10T14:50:57;32.60;47.90
38784;DHT22;24531;45.502;12.238;2022-07-10T14:53:23;32.60;48.70
38784;DHT22;24531;45.502;12.238;2022-07-10T14:55:49;32.60;49.20
38784;DHT22;24531;45.502;12.238;2022-07-10T14:58:15;32.60;49.40
38784;DHT22;24531;45.502;12.238;2022-07-10T15:00:41;32.60;48.70
38784;DHT22;24531;45.502;12.238;2022-07-10T15:03:06;32.70;49.00
38784;DHT22;24531;45.502;12.238;2022-07-10T15:05:32;32.90;48.60
38784;DHT22;24531;45.502;12.238;2022-07-10T15:07:59;32.90;48.80
38784;DHT22;24531;45.502;12.238;2022-07-10T15:10:26;32.90;48.30
38784;DHT22;24531;45.502;12.238;2022-07-10T15:12:52;32.90;48.20
38784;DHT22;24531;45.502;12.238;2022-07-10T15:15:17;32.70;47.90
38784;DHT22;24531;45.502;12.238;2022-07-10T15:17:43;32.60;48.00
38784;DHT22;24531;45.502;12.238;2022-07-10T15:20:10;32.50;48.20
38784;DHT22;24531;45.502;12.238;2022-07-10T15:22:36;32.50;48.80
38784;DHT22;24531;45.502;12.238;2022-07-10T15:25:02;32.40;48.90
38784;DHT22;24531;45.502;12.238;2022-07-10T15:27:28;32.40;49.10
38784;DHT22;24531;45.502;12.238;2022-07-10T15:29:54;32.30;48.90
38784;DHT22;24531;45.502;12.238;2022-07-10T15:32:20;32.30;48.80
38784;DHT22;24531;45.502;12.238;2022-07-10T15:34:46;32.10;48.80
38784;DHT22;24531;45.502;12.238;2022-07-10T15:37:11;32.00;49.40
38784;DHT22;24531;45.502;12.238;2022-07-10T15:39:37;32.00;49.20
38784;DHT22;24531;45.502;12.238;2022-07-10T15:42:10;31.90;50.30
38784;DHT22;24531;45.502;12.238;2022-07-10T15:44:36;31.80;50.80
38784;DHT22;24531;45.502;12.238;2022-07-10T15:47:02;31.80;51.00
38784;DHT22;24531;45.502;12.238;2022-07-10T15:49:28;31.80;51.20
38784;DHT22;24531;45.502;12.238;2022-07-10T15:51:53;31.70;51.20
38784;DHT22;24531;45.502;12.238;2022-07-10T15:54:21;31.70;52.30
38784;DHT22;24531;45.502;12.238;2022-07-10T15:56:46;31.60;51.70
38784;DHT22;24531;45.502;12.238;2022-07-10T15:59:12;31.60;51.20
38784;DHT22;24531;45.502;12.238;2022-07-10T16:01:38;31.60;51.30